KCIU/CIU METAR and TAF weather

Enter ICAO airport designator
Station Type Date Time Source
KCIU METAR 2018/12/13 14:56 UTC NOAA

KCIU 131456Z AUTO 11012KT 2SM BR OVC003 M01/M01 A3010 RMK AO2 SLP221 60000 T10061006 53014 FZRANO


Station Type Date Time Source
KCIU Decoded METAR 2018/12/13 14:56 UTC NOAA

Sault Ste Marie, Chippewa County International Airport, MI, United States (KCIU) 46-15N 084-28W
Dec 13, 2018 - 09:56 AM EST / 2018.12.13 1456 UTC
Wind: from the ESE (110 degrees) at 14 MPH (12 KT):0
Visibility: 2 mile(s):0
Sky conditions: overcast
Weather: mist
Temperature: 30.9 F (-0.6 C)
Windchill: 21 F (-6 C):1
Dew Point: 30.9 F (-0.6 C)
Relative Humidity: 100%
Pressure (altimeter): 30.1 in. Hg (1019 hPa)
Pressure tendency: 0.04 inches (1.4 hPa) higher than three hours ago
ob: KCIU 131456Z AUTO 11012KT 2SM BR OVC003 M01/M01 A3010 RMK AO2 SLP221 60000 T10061006 53014 FZRANO
cycle: 15

Station Type Date Time Source
KCIU TAF UTC NOAA

Error!


Example: see airport list